Time;durP1;ratioP1;P1;durP2;ratioP2;P2;SDS_P1;SDS_P2;PMS_P1;PMS_P2;Temp;Humidity;BMP_temperature;BMP_pressure;BME280_temperature;BME280_humidity;BME280_pressure;Samples;Min_cycle;Max_cycle;Signal;HPM_P1;HPM_P2
2023/01/30 00:02:23;;;;;;;;;;;6.40;99.90;;;;;;5024110;28;20595;-73
2023/01/30 00:04:49;;;;;;;;;;;6.30;99.90;;;;;;5009010;28;19921;-71
2023/01/30 00:07:14;;;;;;;;;;;6.40;99.90;;;;;;5009124;28;19922;-71
2023/01/30 00:09:40;;;;;;;;;;;6.40;99.90;;;;;;5009958;28;20325;-73
2023/01/30 00:12:05;;;;;;;;;;;6.40;99.90;;;;;;5010198;28;19922;-72
2023/01/30 00:14:31;;;;;;;;;;;6.40;99.90;;;;;;5009655;28;20028;-72
2023/01/30 00:16:56;;;;;;;;;;;6.40;99.90;;;;;;5009910;28;20012;-71
2023/01/30 00:19:22;;;;;;;;;;;6.40;99.90;;;;;;5014607;28;20008;-71
2023/01/30 00:21:48;;;;;;;;;;;6.50;99.90;;;;;;5010988;28;19929;-72
2023/01/30 00:24:13;;;;;;;;;;;6.50;99.90;;;;;;5011278;28;19968;-72
2023/01/30 00:26:39;;;;;;;;;;;6.50;99.90;;;;;;5009136;28;20346;-73
2023/01/30 00:29:04;;;;;;;;;;;6.50;99.90;;;;;;5008050;28;19925;-72
2023/01/30 00:31:30;;;;;;;;;;;6.50;99.90;;;;;;5007573;28;19925;-72
2023/01/30 00:33:55;;;;;;;;;;;6.50;99.90;;;;;;5009203;28;19922;-72
2023/01/30 00:36:24;;;;;;;;;;;6.50;99.90;;;;;;5011352;28;19921;-72
2023/01/30 00:38:49;;;;;;;;;;;6.50;99.90;;;;;;5011938;28;19988;-72
2023/01/30 00:41:16;;;;;;;;;;;6.50;99.90;;;;;;5011946;28;20040;-71
2023/01/30 00:49:13;;;;;;;;;;;6.70;99.90;;;;;;5011949;28;19925;-71
2023/01/30 00:51:38;;;;;;;;;;;6.50;99.90;;;;;;5010777;28;19921;-72
2023/01/30 00:54:04;;;;;;;;;;;6.50;99.90;;;;;;5013140;28;19929;-72
2023/01/30 00:56:29;;;;;;;;;;;6.50;99.90;;;;;;5012031;28;19928;-72
2023/01/30 00:58:55;;;;;;;;;;;6.40;99.90;;;;;;5012187;28;19930;-71
2023/01/30 01:01:21;;;;;;;;;;;6.40;99.90;;;;;;5013046;28;20345;-71
2023/01/30 01:03:46;;;;;;;;;;;6.40;99.90;;;;;;5009970;28;19984;-71
2023/01/30 01:06:12;;;;;;;;;;;6.40;99.90;;;;;;5014008;28;19921;-71
2023/01/30 01:08:37;;;;;;;;;;;6.40;99.90;;;;;;5012604;28;19925;-71
2023/01/30 01:11:03;;;;;;;;;;;6.40;99.90;;;;;;5013913;28;19921;-71
2023/01/30 01:13:28;;;;;;;;;;;6.40;99.90;;;;;;5012747;28;19925;-71
2023/01/30 01:15:54;;;;;;;;;;;6.30;99.90;;;;;;5014558;28;19925;-71
2023/01/30 01:18:19;;;;;;;;;;;6.30;99.90;;;;;;5013146;28;19929;-71
2023/01/30 01:20:45;;;;;;;;;;;6.30;99.90;;;;;;5015652;28;20332;-71
2023/01/30 01:23:10;;;;;;;;;;;6.30;99.90;;;;;;5013690;28;19976;-71
2023/01/30 01:25:36;;;;;;;;;;;6.30;99.90;;;;;;5014931;28;19921;-70
2023/01/30 01:28:02;;;;;;;;;;;6.30;99.90;;;;;;5013963;28;19922;-70
2023/01/30 01:30:27;;;;;;;;;;;6.40;99.90;;;;;;5012879;28;20369;-71
2023/01/30 01:32:53;;;;;;;;;;;6.40;99.90;;;;;;5011969;28;20008;-71
2023/01/30 01:35:18;;;;;;;;;;;6.40;99.90;;;;;;5012083;28;19969;-71
2023/01/30 01:37:44;;;;;;;;;;;6.80;99.90;;;;;;5013255;28;19944;-71
2023/01/30 01:42:59;;;;;;;;;;;6.40;99.90;;;;;;5006190;28;19929;-71
2023/01/30 01:45:25;;;;;;;;;;;6.50;99.90;;;;;;5010416;28;19926;-72
2023/01/30 01:47:53;;;;;;;;;;;6.40;99.90;;;;;;5012507;28;19925;-72
2023/01/30 01:50:23;;;;;;;;;;;6.40;99.90;;;;;;5014836;28;19921;-71
2023/01/30 01:52:50;;;;;;;;;;;6.40;99.90;;;;;;5014350;28;20290;-71
2023/01/30 01:55:16;;;;;;;;;;;6.40;99.90;;;;;;5012988;28;19922;-72
2023/01/30 01:57:45;;;;;;;;;;;6.40;99.90;;;;;;5011891;28;20013;-72
2023/01/30 02:00:15;;;;;;;;;;;6.40;99.90;;;;;;5010058;28;20020;-72
2023/01/30 02:02:43;;;;;;;;;;;6.50;99.90;;;;;;5006390;28;19973;-72
2023/01/30 02:05:11;;;;;;;;;;;6.50;99.90;;;;;;5011229;28;19968;-72
2023/01/30 02:07:45;;;;;;;;;;;6.50;99.90;;;;;;5011164;28;20559;-72
2023/01/30 02:10:13;;;;;;;;;;;6.50;99.90;;;;;;5012329;28;19917;-71
2023/01/30 02:12:39;;;;;;;;;;;6.60;99.90;;;;;;5011890;28;20337;-71
2023/01/30 02:15:05;;;;;;;;;;;6.60;99.90;;;;;;5009107;28;19971;-72
2023/01/30 02:17:30;;;;;;;;;;;6.60;99.90;;;;;;5008406;28;19969;-72
2023/01/30 02:20:07;;;;;;;;;;;6.60;99.90;;;;;;5009213;28;20357;-73
2023/01/30 02:22:33;;;;;;;;;;;6.60;99.90;;;;;;5006754;28;19991;-71
2023/01/30 02:25:17;;;;;;;;;;;6.60;99.90;;;;;;5009831;28;19961;-71
2023/01/30 02:28:01;;;;;;;;;;;6.60;99.90;;;;;;5007262;28;20326;-71
2023/01/30 02:30:38;;;;;;;;;;;6.60;99.90;;;;;;5002722;28;19933;-71
2023/01/30 02:33:27;;;;;;;;;;;6.60;99.90;;;;;;5007531;28;19976;-72
2023/01/30 02:35:59;;;;;;;;;;;6.70;99.90;;;;;;5004841;28;19929;-72
2023/01/30 02:38:43;;;;;;;;;;;6.70;99.90;;;;;;5011318;28;19957;-72
2023/01/30 02:41:11;;;;;;;;;;;6.70;99.90;;;;;;5008358;28;19925;-72
2023/01/30 02:43:37;;;;;;;;;;;6.70;99.90;;;;;;5012545;28;19925;-72
2023/01/30 02:46:11;;;;;;;;;;;6.80;99.90;;;;;;5011542;28;20490;-71
2023/01/30 02:48:47;;;;;;;;;;;6.70;99.90;;;;;;5010673;28;19921;-72
2023/01/30 02:51:15;;;;;;;;;;;6.70;99.90;;;;;;5009270;28;20374;-71
2023/01/30 02:53:40;;;;;;;;;;;6.70;99.90;;;;;;5004720;28;20048;-72
2023/01/30 02:56:06;;;;;;;;;;;6.80;99.90;;;;;;5007978;28;19995;-72
2023/01/30 02:58:34;;;;;;;;;;;6.80;99.90;;;;;;5009603;28;19925;-72
2023/01/30 03:01:02;;;;;;;;;;;6.70;99.90;;;;;;5010380;28;19925;-72
2023/01/30 03:03:27;;;;;;;;;;;6.80;99.90;;;;;;5025781;28;20307;-72
2023/01/30 03:06:10;;;;;;;;;;;6.80;99.90;;;;;;5012206;28;19968;-72
2023/01/30 03:08:43;;;;;;;;;;;6.70;99.90;;;;;;5008538;28;19921;-72
2023/01/30 03:11:09;;;;;;;;;;;6.70;99.90;;;;;;5009749;28;19917;-71
2023/01/30 03:13:38;;;;;;;;;;;6.70;99.90;;;;;;5010397;28;19921;-72
2023/01/30 03:16:33;;;;;;;;;;;6.70;99.90;;;;;;5007513;28;19922;-72
2023/01/30 03:19:03;;;;;;;;;;;6.60;99.90;;;;;;4995660;28;19952;-71
2023/01/30 03:21:28;;;;;;;;;;;6.70;99.90;;;;;;5013138;28;19933;-72
2023/01/30 03:23:54;;;;;;;;;;;6.70;99.90;;;;;;5013031;28;19949;-72
2023/01/30 03:26:23;;;;;;;;;;;6.70;99.90;;;;;;5007453;28;19972;-73
2023/01/30 03:28:49;;;;;;;;;;;6.70;99.90;;;;;;5011644;28;20302;-72
2023/01/30 03:31:14;;;;;;;;;;;6.70;99.90;;;;;;5005419;28;20065;-72
2023/01/30 03:33:40;;;;;;;;;;;6.60;99.90;;;;;;5009689;28;20432;-72
2023/01/30 03:36:06;;;;;;;;;;;6.50;99.90;;;;;;5011720;28;19922;-72
2023/01/30 03:38:32;;;;;;;;;;;6.40;99.90;;;;;;5011086;28;19957;-72
2023/01/30 03:40:58;;;;;;;;;;;6.50;99.90;;;;;;5010572;28;20058;-72
2023/01/30 03:43:23;;;;;;;;;;;6.40;99.90;;;;;;5011309;28;20017;-72
2023/01/30 03:45:49;;;;;;;;;;;6.40;99.90;;;;;;5010328;28;19971;-72
2023/01/30 03:48:14;;;;;;;;;;;6.40;99.90;;;;;;5006208;28;19922;-73
2023/01/30 03:50:40;;;;;;;;;;;6.30;99.90;;;;;;5008974;28;19944;-72
2023/01/30 03:53:06;;;;;;;;;;;6.30;99.90;;;;;;5012087;28;19921;-72
2023/01/30 03:55:31;;;;;;;;;;;6.20;99.90;;;;;;5010664;28;19927;-72
2023/01/30 03:57:57;;;;;;;;;;;6.10;99.90;;;;;;4993088;28;19921;-72
2023/01/30 04:00:22;;;;;;;;;;;6.10;99.90;;;;;;5008453;28;19929;-72
2023/01/30 04:02:48;;;;;;;;;;;6.00;99.90;;;;;;5009722;28;19929;-72
2023/01/30 04:05:14;;;;;;;;;;;6.00;99.90;;;;;;5011046;28;19921;-71
2023/01/30 04:07:39;;;;;;;;;;;6.00;99.90;;;;;;5008261;28;19925;-71
2023/01/30 04:10:05;;;;;;;;;;;6.00;99.90;;;;;;5010420;28;19968;-72
2023/01/30 04:12:30;;;;;;;;;;;5.90;99.90;;;;;;5013089;28;19948;-72
2023/01/30 04:14:56;;;;;;;;;;;5.90;99.90;;;;;;5013031;28;19979;-73
2023/01/30 04:17:21;;;;;;;;;;;5.80;99.90;;;;;;5011874;28;20488;-71
2023/01/30 04:19:47;;;;;;;;;;;5.80;99.90;;;;;;5014005;28;19933;-71
2023/01/30 04:22:12;;;;;;;;;;;5.80;99.90;;;;;;5013983;28;20008;-72
2023/01/30 04:24:38;;;;;;;;;;;5.70;99.90;;;;;;5008979;28;19921;-72
2023/01/30 04:27:04;;;;;;;;;;;5.80;99.90;;;;;;5014464;28;19983;-72
2023/01/30 04:29:29;;;;;;;;;;;5.80;99.90;;;;;;5013124;28;20333;-71
2023/01/30 04:31:55;;;;;;;;;;;5.90;99.90;;;;;;5014497;28;20386;-73
2023/01/30 04:34:20;;;;;;;;;;;5.70;99.90;;;;;;5012362;28;20442;-72
2023/01/30 04:36:46;;;;;;;;;;;5.70;99.90;;;;;;5011818;28;20004;-72
2023/01/30 04:39:11;;;;;;;;;;;5.60;99.90;;;;;;5011965;28;20048;-71
2023/01/30 04:41:37;;;;;;;;;;;5.40;99.90;;;;;;5014045;28;19921;-71
2023/01/30 04:44:02;;;;;;;;;;;5.40;99.90;;;;;;5011363;28;19973;-72
2023/01/30 04:46:28;;;;;;;;;;;5.40;99.90;;;;;;5012985;28;19956;-71
2023/01/30 04:48:53;;;;;;;;;;;5.40;99.90;;;;;;5012845;28;19922;-71
2023/01/30 04:51:19;;;;;;;;;;;5.40;99.90;;;;;;5012078;28;20020;-72
2023/01/30 04:53:44;;;;;;;;;;;5.40;99.90;;;;;;5013628;28;19922;-71
2023/01/30 04:56:10;;;;;;;;;;;5.40;99.90;;;;;;5013298;28;19922;-71
2023/01/30 04:58:35;;;;;;;;;;;5.40;99.90;;;;;;5009276;28;21543;-72
2023/01/30 05:01:11;;;;;;;;;;;5.40;99.90;;;;;;5011381;28;19921;-72
2023/01/30 05:03:36;;;;;;;;;;;5.40;99.90;;;;;;4995636;28;20441;-73
2023/01/30 05:06:02;;;;;;;;;;;5.40;99.90;;;;;;5009831;28;20028;-71
2023/01/30 05:08:27;;;;;;;;;;;5.40;99.90;;;;;;5010197;28;19926;-72
2023/01/30 05:10:53;;;;;;;;;;;5.40;99.90;;;;;;5011232;28;19932;-72
2023/01/30 05:13:18;;;;;;;;;;;5.40;99.90;;;;;;5011227;28;19921;-72
2023/01/30 05:15:44;;;;;;;;;;;5.40;99.90;;;;;;5012884;28;19925;-71
2023/01/30 05:18:09;;;;;;;;;;;5.40;99.90;;;;;;5013330;28;19932;-71
2023/01/30 05:20:35;;;;;;;;;;;5.40;99.90;;;;;;5012851;28;20413;-72
2023/01/30 05:23:00;;;;;;;;;;;5.40;99.90;;;;;;5013997;28;20000;-70
2023/01/30 05:25:26;;;;;;;;;;;5.30;99.90;;;;;;5013067;28;19921;-72
2023/01/30 05:27:51;;;;;;;;;;;5.40;99.90;;;;;;4997904;28;20351;-71
2023/01/30 05:30:17;;;;;;;;;;;5.30;99.90;;;;;;5014490;28;19928;-71
2023/01/30 05:32:42;;;;;;;;;;;5.30;99.90;;;;;;5015704;28;19932;-71
2023/01/30 05:35:08;;;;;;;;;;;5.30;99.90;;;;;;5010796;28;20282;-71
2023/01/30 05:37:34;;;;;;;;;;;5.20;99.90;;;;;;5017050;28;19929;-71
2023/01/30 05:39:59;;;;;;;;;;;5.20;99.90;;;;;;5013337;28;19936;-71
2023/01/30 05:42:25;;;;;;;;;;;5.10;99.90;;;;;;5009497;28;20008;-72
2023/01/30 05:44:50;;;;;;;;;;;5.10;99.90;;;;;;5011171;28;19925;-72
2023/01/30 05:47:16;;;;;;;;;;;5.10;99.90;;;;;;5007191;28;19921;-72
2023/01/30 05:49:41;;;;;;;;;;;5.10;99.90;;;;;;5011825;28;19972;-72
2023/01/30 05:52:07;;;;;;;;;;;5.20;99.90;;;;;;5013523;28;19921;-72
2023/01/30 05:54:33;;;;;;;;;;;5.30;99.90;;;;;;5009533;28;20020;-72
2023/01/30 05:56:58;;;;;;;;;;;5.20;99.90;;;;;;5011262;28;20342;-71
2023/01/30 05:59:24;;;;;;;;;;;5.20;99.90;;;;;;5006843;28;19932;-72
2023/01/30 06:01:49;;;;;;;;;;;5.20;99.90;;;;;;5012221;28;19975;-72
2023/01/30 06:04:15;;;;;;;;;;;5.20;99.90;;;;;;5012257;28;19921;-72
2023/01/30 06:06:40;;;;;;;;;;;5.10;99.90;;;;;;5010053;28;19929;-72
2023/01/30 06:09:06;;;;;;;;;;;5.20;99.90;;;;;;5011497;28;19922;-72
2023/01/30 06:11:31;;;;;;;;;;;5.20;99.90;;;;;;5009533;28;19928;-72
2023/01/30 06:13:57;;;;;;;;;;;5.20;99.90;;;;;;5012831;28;19929;-72
2023/01/30 06:16:22;;;;;;;;;;;5.30;99.90;;;;;;5009923;28;20004;-72
2023/01/30 06:18:48;;;;;;;;;;;5.30;99.90;;;;;;5006896;28;20366;-71
2023/01/30 06:21:14;;;;;;;;;;;5.50;99.90;;;;;;5009493;28;19926;-72
2023/01/30 06:23:40;;;;;;;;;;;5.40;99.90;;;;;;5014907;28;19921;-71
2023/01/30 06:26:06;;;;;;;;;;;6.10;99.90;;;;;;5008731;28;19944;-72
2023/01/30 06:28:32;;;;;;;;;;;5.40;99.90;;;;;;5011731;28;19921;-72
2023/01/30 06:30:57;;;;;;;;;;;5.40;99.90;;;;;;5006559;28;21185;-72
2023/01/30 06:33:23;;;;;;;;;;;5.50;99.90;;;;;;5011148;28;19921;-72
2023/01/30 06:35:49;;;;;;;;;;;5.60;99.90;;;;;;5012321;28;19921;-72
2023/01/30 06:38:15;;;;;;;;;;;5.60;99.90;;;;;;5011471;28;19956;-72
2023/01/30 06:40:43;;;;;;;;;;;5.60;99.90;;;;;;5011134;28;19963;-72
2023/01/30 06:43:08;;;;;;;;;;;5.60;99.90;;;;;;5009196;28;20286;-72
2023/01/30 06:45:34;;;;;;;;;;;5.70;99.90;;;;;;5010946;28;19928;-72
2023/01/30 06:48:00;;;;;;;;;;;5.60;99.90;;;;;;5011959;28;19928;-72
2023/01/30 06:50:26;;;;;;;;;;;6.40;99.90;;;;;;5012868;28;20047;-72
2023/01/30 06:52:53;;;;;;;;;;;5.60;99.90;;;;;;5010386;28;19922;-72
2023/01/30 06:55:20;;;;;;;;;;;5.60;99.90;;;;;;5007113;28;20431;-71
2023/01/30 06:57:45;;;;;;;;;;;5.60;99.90;;;;;;5011161;28;20298;-72
2023/01/30 07:00:16;;;;;;;;;;;5.60;99.90;;;;;;4990433;28;19921;-72
2023/01/30 07:02:42;;;;;;;;;;;5.60;99.90;;;;;;5009785;28;19921;-72
2023/01/30 07:05:08;;;;;;;;;;;5.60;99.90;;;;;;5010925;28;19929;-71
2023/01/30 07:07:34;;;;;;;;;;;5.70;99.90;;;;;;5010037;28;20436;-71
2023/01/30 07:09:59;;;;;;;;;;;5.70;99.90;;;;;;5010187;28;19925;-71
2023/01/30 07:12:25;;;;;;;;;;;5.70;99.90;;;;;;5013197;28;19944;-72
2023/01/30 07:14:51;;;;;;;;;;;5.70;99.90;;;;;;5010713;28;19928;-72
2023/01/30 07:17:16;;;;;;;;;;;5.70;99.90;;;;;;5009874;28;19925;-72
2023/01/30 07:19:42;;;;;;;;;;;5.70;99.90;;;;;;5011482;28;19929;-72
2023/01/30 07:22:08;;;;;;;;;;;5.70;99.90;;;;;;5009614;28;19921;-71
2023/01/30 07:24:33;;;;;;;;;;;5.70;99.90;;;;;;5011845;28;20236;-72
2023/01/30 07:26:59;;;;;;;;;;;5.70;99.90;;;;;;5012050;28;19947;-72
2023/01/30 07:29:24;;;;;;;;;;;5.80;99.90;;;;;;5012796;28;19979;-72
2023/01/30 07:31:50;;;;;;;;;;;5.60;99.90;;;;;;5013217;28;19922;-72
2023/01/30 07:34:15;;;;;;;;;;;5.70;99.90;;;;;;5008020;28;20360;-72
2023/01/30 07:36:41;;;;;;;;;;;5.70;99.90;;;;;;5013333;28;19922;-71
2023/01/30 07:39:08;;;;;;;;;;;5.70;99.90;;;;;;5012042;28;19925;-72
2023/01/30 07:41:34;;;;;;;;;;;5.80;99.90;;;;;;5009558;28;19932;-72
2023/01/30 07:43:59;;;;;;;;;;;5.80;99.90;;;;;;5012184;28;20067;-71
2023/01/30 07:46:25;;;;;;;;;;;5.80;99.90;;;;;;5010819;28;20375;-71
2023/01/30 07:48:50;;;;;;;;;;;5.90;99.90;;;;;;5015708;28;19929;-71
2023/01/30 07:51:16;;;;;;;;;;;5.90;99.90;;;;;;5013081;28;20340;-71
2023/01/30 07:53:42;;;;;;;;;;;5.90;99.90;;;;;;5016771;28;19929;-70
2023/01/30 07:56:08;;;;;;;;;;;5.90;99.90;;;;;;5013327;28;20291;-71
2023/01/30 07:58:34;;;;;;;;;;;5.90;99.90;;;;;;5013136;28;20019;-71
2023/01/30 08:01:00;;;;;;;;;;;5.90;99.90;;;;;;5016476;28;20015;-70
2023/01/30 08:03:25;;;;;;;;;;;5.90;99.90;;;;;;5016948;28;19928;-71
2023/01/30 08:05:52;;;;;;;;;;;5.90;99.90;;;;;;5015786;28;19922;-71
2023/01/30 08:08:18;;;;;;;;;;;6.00;99.90;;;;;;5018818;28;19976;-71
2023/01/30 08:10:44;;;;;;;;;;;6.00;99.90;;;;;;5015536;28;19925;-70
2023/01/30 08:13:09;;;;;;;;;;;6.10;99.90;;;;;;5013250;28;19994;-71
2023/01/30 08:15:35;;;;;;;;;;;6.10;99.90;;;;;;5017904;28;20078;-72
2023/01/30 08:18:01;;;;;;;;;;;6.10;99.90;;;;;;5017758;28;19921;-70
2023/01/30 08:20:27;;;;;;;;;;;6.10;99.90;;;;;;5026685;28;19921;-71
2023/01/30 08:22:53;;;;;;;;;;;6.10;99.90;;;;;;5017293;28;19928;-71
2023/01/30 08:25:18;;;;;;;;;;;6.10;99.90;;;;;;5015170;28;19929;-71
2023/01/30 08:27:44;;;;;;;;;;;6.20;99.90;;;;;;5015988;28;20040;-71
2023/01/30 08:30:10;;;;;;;;;;;6.20;99.90;;;;;;5011618;28;19944;-72
2023/01/30 08:32:36;;;;;;;;;;;6.20;99.90;;;;;;5000296;28;22208;-70
2023/01/30 08:35:01;;;;;;;;;;;6.30;99.90;;;;;;5014110;28;19940;-71
2023/01/30 08:37:27;;;;;;;;;;;6.30;99.90;;;;;;5010182;28;20351;-70
2023/01/30 08:39:52;;;;;;;;;;;6.50;99.90;;;;;;5014565;28;19928;-72
2023/01/30 08:42:18;;;;;;;;;;;6.30;99.90;;;;;;5013475;28;19963;-73
2023/01/30 08:44:44;;;;;;;;;;;6.30;99.90;;;;;;5015199;28;19989;-72
2023/01/30 08:47:09;;;;;;;;;;;6.40;99.90;;;;;;5014273;28;19921;-73
2023/01/30 08:49:34;;;;;;;;;;;6.40;99.90;;;;;;5013694;28;19925;-72
2023/01/30 08:52:00;;;;;;;;;;;6.40;99.90;;;;;;5011978;28;20412;-73
2023/01/30 08:54:26;;;;;;;;;;;6.40;99.90;;;;;;5015491;28;19925;-72
2023/01/30 08:56:51;;;;;;;;;;;6.50;99.90;;;;;;5009565;28;19921;-70
2023/01/30 08:59:17;;;;;;;;;;;6.50;99.90;;;;;;5004019;28;19936;-73
2023/01/30 09:01:42;;;;;;;;;;;6.60;99.90;;;;;;5006228;28;20371;-72
2023/01/30 09:04:08;;;;;;;;;;;6.60;99.90;;;;;;5013055;28;19933;-72
2023/01/30 09:06:33;;;;;;;;;;;7.10;99.90;;;;;;5012662;28;20643;-72
2023/01/30 09:08:59;;;;;;;;;;;6.60;99.90;;;;;;5019112;28;19921;-72
2023/01/30 09:11:24;;;;;;;;;;;6.60;99.90;;;;;;5013949;28;19921;-69
2023/01/30 09:13:50;;;;;;;;;;;6.60;99.90;;;;;;5013608;28;19929;-70
2023/01/30 09:16:16;;;;;;;;;;;6.70;99.90;;;;;;5013528;28;19921;-72
2023/01/30 09:18:42;;;;;;;;;;;6.70;99.90;;;;;;5017255;28;19913;-71
2023/01/30 09:21:08;;;;;;;;;;;6.60;99.90;;;;;;5015356;28;20358;-71
2023/01/30 09:23:34;;;;;;;;;;;6.70;99.90;;;;;;5012099;28;20298;-72
2023/01/30 09:25:59;;;;;;;;;;;6.60;99.90;;;;;;5013184;28;19927;-72
2023/01/30 09:28:25;;;;;;;;;;;6.70;99.90;;;;;;5011694;28;19928;-72
2023/01/30 09:30:50;;;;;;;;;;;6.60;99.90;;;;;;5014478;28;19921;-71
2023/01/30 09:33:19;;;;;;;;;;;6.80;99.90;;;;;;5013983;28;20260;-71
2023/01/30 09:35:48;;;;;;;;;;;6.70;99.90;;;;;;5014044;28;19928;-72
2023/01/30 09:38:13;;;;;;;;;;;6.70;99.90;;;;;;5012753;28;19940;-73
2023/01/30 09:40:45;;;;;;;;;;;6.60;99.90;;;;;;5013707;28;19926;-72
2023/01/30 09:43:22;;;;;;;;;;;6.60;99.90;;;;;;5011079;28;20338;-71
2023/01/30 09:46:00;;;;;;;;;;;6.60;99.90;;;;;;5011608;28;20294;-69
2023/01/30 09:48:32;;;;;;;;;;;6.60;99.90;;;;;;5000025;28;19921;-72
2023/01/30 09:51:18;;;;;;;;;;;6.60;99.90;;;;;;5011947;28;19928;-71
2023/01/30 09:53:43;;;;;;;;;;;6.70;99.90;;;;;;5008564;28;19991;-71
2023/01/30 09:56:10;;;;;;;;;;;6.80;99.90;;;;;;5012284;28;20363;-71
2023/01/30 09:58:44;;;;;;;;;;;7.00;99.90;;;;;;5011325;28;19921;-71
2023/01/30 10:01:15;;;;;;;;;;;6.80;99.90;;;;;;5013700;28;19976;-75
2023/01/30 10:03:48;;;;;;;;;;;7.10;99.90;;;;;;5013875;28;19925;-71
2023/01/30 10:06:15;;;;;;;;;;;7.10;99.90;;;;;;5011507;28;20016;-73
2023/01/30 10:08:59;;;;;;;;;;;7.10;99.90;;;;;;5012636;28;19969;-72
2023/01/30 10:11:24;;;;;;;;;;;7.20;99.90;;;;;;5014037;28;20294;-72
2023/01/30 10:14:02;;;;;;;;;;;7.30;99.90;;;;;;5010813;28;19921;-72
2023/01/30 10:16:42;;;;;;;;;;;7.40;99.90;;;;;;5007692;28;19922;-72
2023/01/30 10:19:26;;;;;;;;;;;8.20;99.90;;;;;;5008532;28;19921;-72
2023/01/30 10:22:00;;;;;;;;;;;7.60;99.90;;;;;;5003583;28;19969;-73
2023/01/30 10:24:37;;;;;;;;;;;7.60;99.90;;;;;;5025403;28;19929;-71
2023/01/30 10:27:03;;;;;;;;;;;7.50;99.90;;;;;;5012760;28;19925;-71
2023/01/30 10:29:35;;;;;;;;;;;7.10;99.90;;;;;;5010550;28;19921;-71
2023/01/30 10:32:06;;;;;;;;;;;6.70;99.90;;;;;;5012961;28;19929;-71
2023/01/30 10:34:39;;;;;;;;;;;6.70;99.90;;;;;;5011969;28;20329;-69
2023/01/30 10:37:12;;;;;;;;;;;6.30;99.90;;;;;;5009800;28;19936;-72
2023/01/30 10:39:43;;;;;;;;;;;6.20;99.90;;;;;;5011819;28;19944;-71
2023/01/30 10:42:18;;;;;;;;;;;6.00;99.90;;;;;;5012180;28;19921;-73
2023/01/30 10:44:44;;;;;;;;;;;5.90;99.90;;;;;;5015645;28;19921;-72
2023/01/30 10:47:13;;;;;;;;;;;5.80;99.90;;;;;;5021158;28;19921;-72
2023/01/30 10:49:40;;;;;;;;;;;5.70;99.90;;;;;;5007340;28;20363;-71
2023/01/30 10:52:26;;;;;;;;;;;5.70;99.90;;;;;;5010342;28;19928;-72
2023/01/30 10:55:10;;;;;;;;;;;5.70;99.90;;;;;;5011722;28;20317;-72
2023/01/30 10:57:44;;;;;;;;;;;5.90;99.90;;;;;;5011304;28;19921;-72
2023/01/30 11:00:16;;;;;;;;;;;6.10;99.90;;;;;;5022569;28;20371;-72
2023/01/30 11:03:17;;;;;;;;;;;6.10;99.90;;;;;;5000048;28;19929;-71
2023/01/30 11:06:12;;;;;;;;;;;6.20;99.90;;;;;;4952360;28;19922;-72
2023/01/30 11:08:37;;;;;;;;;;;6.30;99.90;;;;;;4989672;28;20310;-72
2023/01/30 11:11:24;;;;;;;;;;;6.40;99.90;;;;;;5012408;28;20012;-71
2023/01/30 11:13:49;;;;;;;;;;;6.40;99.90;;;;;;5008823;28;20035;-71
2023/01/30 11:16:15;;;;;;;;;;;6.50;99.90;;;;;;5006264;28;20062;-71
2023/01/30 11:18:47;;;;;;;;;;;6.60;99.90;;;;;;5011203;28;20000;-70
2023/01/30 11:21:19;;;;;;;;;;;6.60;99.90;;;;;;5010926;28;20334;-70
2023/01/30 11:23:44;;;;;;;;;;;6.80;99.90;;;;;;5011911;28;20323;-71
2023/01/30 11:26:36;;;;;;;;;;;6.80;99.90;;;;;;5007608;28;19929;-72
2023/01/30 11:29:15;;;;;;;;;;;6.90;99.90;;;;;;5005145;28;19932;-72
2023/01/30 11:31:41;;;;;;;;;;;7.00;99.90;;;;;;5007581;28;19922;-72
2023/01/30 11:34:17;;;;;;;;;;;7.20;99.90;;;;;;5002526;28;19944;-72
2023/01/30 11:36:45;;;;;;;;;;;7.30;99.90;;;;;;5011294;28;19922;-72
2023/01/30 11:39:11;;;;;;;;;;;7.40;99.90;;;;;;5001571;28;19928;-71
2023/01/30 11:41:40;;;;;;;;;;;7.50;99.90;;;;;;5011069;28;21539;-71
2023/01/30 11:44:08;;;;;;;;;;;7.40;99.90;;;;;;5007890;28;19921;-71
2023/01/30 11:46:35;;;;;;;;;;;7.40;99.90;;;;;;5010178;28;19921;-71
2023/01/30 11:49:03;;;;;;;;;;;7.40;99.90;;;;;;5010084;28;19953;-72
2023/01/30 11:51:31;;;;;;;;;;;7.40;99.90;;;;;;5015759;28;19922;-72
2023/01/30 11:54:02;;;;;;;;;;;7.40;99.90;;;;;;5007031;28;20319;-73
2023/01/30 11:56:28;;;;;;;;;;;7.40;99.90;;;;;;5005493;28;20535;-73
2023/01/30 11:58:57;;;;;;;;;;;7.40;99.90;;;;;;5009074;28;19921;-72
2023/01/30 12:01:28;;;;;;;;;;;7.40;99.90;;;;;;5010575;28;19921;-71
2023/01/30 12:03:53;;;;;;;;;;;7.40;99.90;;;;;;5001353;28;20060;-72
2023/01/30 12:06:38;;;;;;;;;;;7.50;99.90;;;;;;5007543;28;20033;-73
2023/01/30 12:09:04;;;;;;;;;;;7.40;99.90;;;;;;5008110;28;20117;-72
2023/01/30 12:11:43;;;;;;;;;;;7.40;99.90;;;;;;5007746;28;19977;-73
2023/01/30 12:14:28;;;;;;;;;;;7.40;99.90;;;;;;5002427;28;20033;-72
2023/01/30 12:16:59;;;;;;;;;;;7.40;99.90;;;;;;5005237;28;19929;-71
2023/01/30 12:19:43;;;;;;;;;;;7.40;99.90;;;;;;5008719;28;19921;-73
2023/01/30 12:22:15;;;;;;;;;;;7.50;99.90;;;;;;5010814;28;19922;-73
2023/01/30 12:24:47;;;;;;;;;;;7.50;99.90;;;;;;5011399;28;19927;-72
2023/01/30 12:27:32;;;;;;;;;;;7.60;99.90;;;;;;5011570;28;20025;-73
2023/01/30 12:30:17;;;;;;;;;;;7.50;99.90;;;;;;5010679;28;19928;-71
2023/01/30 12:32:43;;;;;;;;;;;7.50;99.90;;;;;;5013442;28;20357;-72
2023/01/30 12:35:22;;;;;;;;;;;7.50;99.90;;;;;;5013635;28;20051;-71
2023/01/30 12:38:11;;;;;;;;;;;7.40;99.90;;;;;;5016116;28;19944;-72
2023/01/30 12:40:45;;;;;;;;;;;7.40;99.90;;;;;;5011361;28;19929;-72
2023/01/30 12:43:10;;;;;;;;;;;7.40;99.90;;;;;;5014565;28;19931;-73
2023/01/30 12:45:39;;;;;;;;;;;7.40;99.90;;;;;;5016099;28;19998;-72
2023/01/30 12:48:31;;;;;;;;;;;7.50;99.90;;;;;;5015742;28;19921;-72
2023/01/30 12:51:03;;;;;;;;;;;7.40;99.90;;;;;;4995565;28;19944;-72
2023/01/30 12:53:37;;;;;;;;;;;7.40;99.90;;;;;;5003953;28;20494;-72
2023/01/30 12:56:08;;;;;;;;;;;7.50;99.90;;;;;;5016600;28;19921;-72
2023/01/30 12:58:37;;;;;;;;;;;7.50;99.90;;;;;;5013963;28;20306;-71
2023/01/30 13:01:03;;;;;;;;;;;7.50;99.90;;;;;;5016497;28;20366;-70
2023/01/30 13:03:38;;;;;;;;;;;7.40;99.90;;;;;;5015589;28;19933;-72
2023/01/30 13:06:26;;;;;;;;;;;7.40;99.90;;;;;;5014357;28;19921;-71
2023/01/30 13:09:06;;;;;;;;;;;7.40;99.90;;;;;;5005167;28;19922;-71
2023/01/30 13:11:34;;;;;;;;;;;7.40;99.90;;;;;;5012349;28;20418;-72
2023/01/30 13:14:04;;;;;;;;;;;7.40;99.90;;;;;;5014689;28;19922;-72
2023/01/30 13:16:48;;;;;;;;;;;7.40;99.90;;;;;;5015748;28;19983;-71
2023/01/30 13:19:16;;;;;;;;;;;7.40;99.90;;;;;;5013914;28;20315;-72
2023/01/30 13:21:58;;;;;;;;;;;7.40;99.90;;;;;;5015023;28;19921;-72
2023/01/30 13:24:29;;;;;;;;;;;7.40;99.90;;;;;;5013363;28;19921;-73
2023/01/30 13:26:56;;;;;;;;;;;7.70;99.90;;;;;;5006052;28;20302;-73
2023/01/30 13:29:25;;;;;;;;;;;7.50;99.90;;;;;;5013748;28;19937;-72
2023/01/30 13:31:53;;;;;;;;;;;7.40;99.90;;;;;;5018051;28;20386;-72
2023/01/30 13:34:28;;;;;;;;;;;7.40;99.90;;;;;;5030000;28;19921;-72
2023/01/30 13:37:03;;;;;;;;;;;7.40;99.90;;;;;;5035900;28;19989;-72
2023/01/30 13:39:31;;;;;;;;;;;7.50;99.90;;;;;;5016167;28;20279;-71
2023/01/30 13:41:58;;;;;;;;;;;7.50;99.90;;;;;;5014882;28;20290;-73
2023/01/30 13:44:32;;;;;;;;;;;7.60;99.90;;;;;;5012674;28;19921;-72
2023/01/30 13:47:02;;;;;;;;;;;7.50;99.90;;;;;;5017063;28;19948;-73
2023/01/30 13:49:48;;;;;;;;;;;7.60;99.90;;;;;;5004808;28;19921;-73
2023/01/30 13:52:30;;;;;;;;;;;7.50;99.90;;;;;;5014132;28;19976;-73
2023/01/30 13:55:03;;;;;;;;;;;7.40;99.90;;;;;;5012885;28;20290;-72
2023/01/30 13:57:31;;;;;;;;;;;7.40;99.90;;;;;;5015615;28;19921;-74
2023/01/30 13:59:57;;;;;;;;;;;7.40;99.90;;;;;;5011812;28;19921;-74
2023/01/30 14:02:23;;;;;;;;;;;7.40;99.90;;;;;;5011425;28;19952;-71
2023/01/30 14:04:49;;;;;;;;;;;7.30;99.90;;;;;;5013807;28;19963;-72
2023/01/30 14:07:24;;;;;;;;;;;7.30;99.90;;;;;;5013205;28;19999;-73
2023/01/30 14:10:08;;;;;;;;;;;7.30;99.90;;;;;;5013114;28;19917;-71
2023/01/30 14:12:38;;;;;;;;;;;7.30;99.90;;;;;;5010210;28;20306;-73
2023/01/30 14:15:14;;;;;;;;;;;7.30;99.90;;;;;;5010810;28;19925;-73
2023/01/30 14:18:01;;;;;;;;;;;7.30;99.90;;;;;;5016453;28;19976;-73
2023/01/30 14:20:34;;;;;;;;;;;7.30;99.90;;;;;;5012693;28;19972;-73
2023/01/30 14:23:18;;;;;;;;;;;7.30;99.90;;;;;;5014009;28;19932;-73
2023/01/30 14:25:47;;;;;;;;;;;7.30;99.90;;;;;;5012548;28;20360;-72
2023/01/30 14:28:13;;;;;;;;;;;7.30;99.90;;;;;;5015659;28;19921;-73
2023/01/30 14:30:46;;;;;;;;;;;7.20;99.90;;;;;;5013814;28;19923;-73
2023/01/30 14:33:18;;;;;;;;;;;7.30;99.90;;;;;;5012212;28;20318;-71
2023/01/30 14:35:44;;;;;;;;;;;7.40;99.90;;;;;;5009931;28;19954;-71
2023/01/30 14:38:10;;;;;;;;;;;7.50;99.90;;;;;;5005488;28;19929;-72
2023/01/30 14:40:37;;;;;;;;;;;7.50;99.90;;;;;;5011911;28;19945;-72
2023/01/30 14:43:13;;;;;;;;;;;7.50;99.90;;;;;;5008909;28;19968;-72
2023/01/30 14:45:50;;;;;;;;;;;7.40;99.90;;;;;;5003249;28;19969;-73
2023/01/30 14:48:31;;;;;;;;;;;7.40;99.90;;;;;;5007794;28;19925;-72
2023/01/30 14:51:17;;;;;;;;;;;7.30;99.90;;;;;;5007669;28;20092;-72